Flood From: 22-02-2018 16:00 Until: 23-02-2018 16:00 warning for: Flood Level: Yellow info button

Although rather usual in this region, locally or potentially dangerous phenomena are expected. (such as local winds, summer thunderstorms, rising streams or high waves) Be aware and pay attention to the latest weather updates, especially if you carry out activities exposed to weather or close to a stream or shoreline. 


Meteo18 Weather Cam more information Meteo18 Weather Cam


Thunder radar more information blitzortung!


Rain radar more information rain snow radar


Visit our other weather sites:

Template documentation
and downloads

And another site



Weather Underground History page Text

Daily Summary for October 26, 2017 Units:  Metric    English   Both
« Previous Day
Next Day »
Daily Weekly Monthly Yearly Custom
  High: Low: Average:
Temperature: -17.8 °C -11.6 °C -9.1 °C
Dew Point: -17.8 °C -11.9 °C -10.5 °C
Humidity: Humidity % 56 % 85 %
Wind Speed: 0 km/h 0 km/h 2.1 km/h
Wind Gust: 0 km/h - -
Wind:- - SW
Pressure: 0 hPa 34703.1 hPa -
Precipitation: 7.62 mm    
Historical Graphs
 
 
Tabular Data for October 26, 2017
Time Temperature Dew Point Pressure Wind Wind Speed Wind Gust Humidity Rainfall Rate (Hourly)
-17.8 °C -17.8 °C 0 hPa Calm     Humidity % 0 mm
00:02 -10.5 °C -10.8 °C 34740.4 hPa Calm   5.1 km/h 96 % 0 mm
00:12 -10.7 °C -11 °C 34740.4 hPa Calm   2.6 km/h 96 % 0 mm
00:17 -10.7 °C -11 °C 34740.4 hPa Calm   2.6 km/h 96 % 0 mm
00:22 -10.6 °C -10.9 °C 34740.4 hPa Calm     96 % 0 mm
00:32 -10.6 °C -10.9 °C 34740.4 hPa Calm     96 % 0 mm
00:37 -10.6 °C -10.9 °C 34740.4 hPa Calm     96 % 0 mm
00:42 -10.7 °C -11 °C 34740.4 hPa Calm     96 % 0 mm
00:47 -10.8 °C -11.1 °C 34740.4 hPa Calm     96 % 0 mm
00:52 -10.8 °C -11.2 °C 34740.4 hPa Calm     96 % 0 mm
00:57 -10.9 °C -11.2 °C 34740.4 hPa Calm     96 % 0 mm
01:02 -10.8 °C -11.2 °C 34740.4 hPa Calm     96 % 0 mm
01:12 -10.8 °C -11.2 °C 34740.4 hPa Calm     96 % 0 mm
01:17 -10.8 °C -11.2 °C 34740.4 hPa Calm     96 % 0 mm
01:22 -10.9 °C -11.2 °C 34740.4 hPa Calm     96 % 0 mm
01:32 -10.8 °C -11.1 °C 34740.4 hPa Calm     97 % 0 mm
01:42 -10.7 °C -10.9 °C 34740.4 hPa Calm     97 % 0 mm
01:52 -10.6 °C -10.9 °C 34740.4 hPa Calm     97 % 0 mm
01:57 -10.7 °C -11.1 °C 34740.4 hPa Calm     96 % 0 mm
02:02 -10.9 °C -11.2 °C 34740.4 hPa Calm     96 % 0 mm
02:07 -10.9 °C -11.2 °C 34740.4 hPa Calm     97 % 0 mm
02:12 -10.9 °C -11.2 °C 34740.4 hPa Calm     97 % 0 mm
02:17 -10.8 °C -11.1 °C 34740.4 hPa Calm     97 % 0 mm
02:22 -10.8 °C -11.1 °C 34740.4 hPa Calm     97 % 0 mm
02:32 -10.9 °C -11.3 °C 34740.4 hPa North 5.1 km/h   96 % 0 mm
02:37 -10.8 °C -11.1 °C 34740.4 hPa North 2.6 km/h 5.1 km/h 97 % 0 mm
02:42 -10.9 °C -11.2 °C 34740.4 hPa NNW 2.6 km/h 5.1 km/h 97 % 0 mm
02:52 -10.9 °C -11.2 °C 34740.4 hPa NNW 2.6 km/h 5.1 km/h 97 % 0 mm
02:57 -10.9 °C -11.2 °C 34740.4 hPa NNW 2.6 km/h 5.1 km/h 97 % 0 mm
03:02 -10.9 °C -11.2 °C 34726.8 hPa NNW 2.6 km/h 5.1 km/h 97 % 0 mm
03:07 -10.8 °C -11.1 °C 34740.4 hPa Calm   5.1 km/h 97 % 0 mm
03:12 -10.8 °C -11.1 °C 34740.4 hPa Calm   5.1 km/h 97 % 0 mm
03:17 -10.8 °C -11.1 °C 34740.4 hPa Calm   5.1 km/h 97 % 0 mm
03:22 -10.9 °C -11.3 °C 34740.4 hPa Calm   5.1 km/h 96 % 0 mm
03:32 -11 °C -11.3 °C 34740.4 hPa Calm   2.6 km/h 97 % 0 mm
03:37 -10.9 °C -11.2 °C 34740.4 hPa Calm     97 % 0 mm
03:42 -10.9 °C -11.2 °C 34740.4 hPa Calm     97 % 0 mm
03:47 -10.9 °C -11.2 °C 34740.4 hPa Calm     97 % 0 mm
03:52 -11.1 °C -11.4 °C 34740.4 hPa Calm     96 % 0 mm
03:57 -11.1 °C -11.3 °C 34726.8 hPa Calm     97 % 0 mm
04:02 -11 °C -11.3 °C 34740.4 hPa Calm     97 % 0 mm
04:07 -10.9 °C -11.2 °C 34740.4 hPa Calm     97 % 0 mm
04:12 -10.9 °C -11.2 °C 34740.4 hPa Calm     97 % 0 mm
04:17 -11 °C -11.3 °C 34740.4 hPa NE 2.6 km/h   97 % 0 mm
04:22 -11.2 °C -11.6 °C 34726.8 hPa NNE 5.1 km/h   96 % 0 mm
04:32 -11.1 °C -11.4 °C 34726.8 hPa NNE 5.1 km/h 5.1 km/h 97 % 0 mm
04:37 -10.9 °C -11.1 °C 34726.8 hPa NNE 5.1 km/h 5.1 km/h 98 % 0 mm
04:42 -10.9 °C -11.2 °C 34726.8 hPa Calm   5.1 km/h 97 % 0 mm
04:47 -10.9 °C -11.2 °C 34726.8 hPa Calm   5.1 km/h 97 % 0 mm
04:52 -11 °C -11.3 °C 34726.8 hPa Calm   5.1 km/h 97 % 0 mm
04:57 -11.2 °C -11.4 °C 34716.7 hPa Calm   2.6 km/h 97 % 0 mm
05:02 -11.1 °C -11.3 °C 34716.7 hPa Calm   2.6 km/h 97 % 0 mm
05:07 -10.9 °C -11.2 °C 34716.7 hPa Calm     97 % 0 mm
05:12 -11.1 °C -11.3 °C 34726.8 hPa Calm     97 % 0 mm
05:17 -11.1 °C -11.4 °C 34726.8 hPa Calm     97 % 0 mm
05:22 -11.2 °C -11.4 °C 34726.8 hPa Calm     97 % 0 mm
05:32 -11.2 °C -11.4 °C 34726.8 hPa Calm     97 % 0 mm
05:42 -11.2 °C -11.5 °C 34726.8 hPa Calm     97 % 0 mm
05:52 -11.1 °C -11.3 °C 34726.8 hPa Calm     97 % 7.62 mm
05:57 -11 °C -11.3 °C 34726.8 hPa Calm     97 % 7.62 mm
06:02 -10.9 °C -11.1 °C 34726.8 hPa Calm     98 % 7.62 mm
06:12 -10.8 °C -11.1 °C 34726.8 hPa Calm     97 % 7.62 mm
06:17 -10.9 °C -11.2 °C 34726.8 hPa Calm     97 % 7.62 mm
06:22 -11.1 °C -11.3 °C 34726.8 hPa Calm     97 % 7.62 mm
06:32 -11.3 °C -11.6 °C 34726.8 hPa WNW 2.6 km/h   96 % 7.62 mm
06:42 -11.1 °C -11.4 °C 34726.8 hPa Calm   2.6 km/h 97 % 0 mm
06:52 -11.2 °C -11.4 °C 34726.8 hPa Calm   2.6 km/h 97 % 0 mm
07:02 -11.2 °C -11.5 °C 34726.8 hPa Calm     97 % 0 mm
07:12 -11.1 °C -11.2 °C 34726.8 hPa Calm     98 % 0 mm
07:17 -11.1 °C -11.4 °C 34726.8 hPa Calm     97 % 0 mm
07:22 -11.2 °C -11.5 °C 34726.8 hPa Calm     97 % 0 mm
07:32 -11.4 °C -11.7 °C 34726.8 hPa Calm     97 % 0 mm
07:42 -11.2 °C -11.4 °C 34726.8 hPa Calm     98 % 0 mm
07:52 -11.3 °C -11.6 °C 34726.8 hPa Calm     97 % 0 mm
08:02 -11.3 °C -11.6 °C 34726.8 hPa Calm     97 % 0 mm
08:07 -11.4 °C -11.7 °C 34726.8 hPa Calm     97 % 0 mm
08:12 -11.5 °C -11.8 °C 34726.8 hPa Calm     97 % 0 mm
08:17 -11.6 °C -11.8 °C 34726.8 hPa Calm     97 % 0 mm
08:22 -11.6 °C -11.8 °C 34726.8 hPa Calm     97 % 0 mm
08:32 -11.6 °C -11.8 °C 34740.4 hPa Calm     97 % 0 mm
08:42 -11.6 °C -11.8 °C 34740.4 hPa Calm     97 % 0 mm
08:47 -11.6 °C -11.8 °C 34740.4 hPa Calm     97 % 0 mm
08:52 -11.6 °C -11.9 °C 34740.4 hPa Calm     97 % 0 mm
09:02 -11.6 °C -11.9 °C 34750.5 hPa Calm     97 % 0 mm
09:07 -11.5 °C -11.7 °C 34750.5 hPa Calm     98 % 0 mm
09:12 -11.5 °C -11.8 °C 34750.5 hPa Calm     97 % 0 mm
09:17 -11.6 °C -11.8 °C 34750.5 hPa Calm     97 % 0 mm
09:22 -11.6 °C -11.8 °C 34750.5 hPa Calm     97 % 0 mm
09:32 -11.3 °C -11.6 °C 34750.5 hPa Calm     97 % 0 mm
09:42 -10.9 °C -11.2 °C 34750.5 hPa Calm     97 % 0 mm
09:47 -10.9 °C -11.2 °C 34750.5 hPa Calm     97 % 0 mm
09:52 -10.9 °C -11.2 °C 34750.5 hPa Calm     96 % 0 mm
10:02 -10.8 °C -11.1 °C 34750.5 hPa Calm     96 % 0 mm
10:07 -10.8 °C -11.1 °C 34750.5 hPa Calm     96 % 0 mm
10:12 -10.7 °C -11 °C 34750.5 hPa Calm     96 % 0 mm
10:22 -10.3 °C -10.6 °C 34750.5 hPa Calm     97 % 0 mm
10:32 -10 °C -10.4 °C 34750.5 hPa Calm     95 % 0 mm
10:37 -10.1 °C -10.6 °C 34750.5 hPa Calm     94 % 0 mm
10:42 -10 °C -10.6 °C 34750.5 hPa Calm     93 % 0 mm
10:52 -9.8 °C -10.6 °C 34750.5 hPa Calm     91 % 0 mm
10:57 -9.8 °C -10.7 °C 34750.5 hPa SSE 2.6 km/h 7.7 km/h 90 % 0 mm
11:02 -9.8 °C -10.7 °C 34750.5 hPa Calm   7.7 km/h 90 % 0 mm
11:12 -9.6 °C -10.7 °C 34750.5 hPa SSW 2.6 km/h 10.3 km/h 88 % 0 mm
11:17 -9.4 °C -10.4 °C 34750.5 hPa Calm   7.7 km/h 89 % 0 mm
11:22 -9.3 °C -10.6 °C 34750.5 hPa Calm   7.7 km/h 87 % 0 mm
11:32 -9.2 °C -10.4 °C 34750.5 hPa Calm   5.1 km/h 87 % 0 mm
11:42 -9.1 °C -10.4 °C 34750.5 hPa Calm   7.7 km/h 85 % 0 mm
11:52 -8.8 °C -10.2 °C 34750.5 hPa Calm   5.1 km/h 85 % 0 mm
12:02 -8.6 °C -10.1 °C 34750.5 hPa SSW 2.6 km/h 5.1 km/h 84 % 0 mm
12:07 -8.5 °C -10.1 °C 34750.5 hPa South 5.1 km/h 7.7 km/h 83 % 0 mm
12:12 -8.5 °C -10.1 °C 34750.5 hPa Calm   7.7 km/h 83 % 0 mm
12:17 -8.5 °C -10.1 °C 34750.5 hPa South 2.6 km/h 10.3 km/h 83 % 0 mm
12:22 -8.4 °C -10.1 °C 34750.5 hPa WSW 5.1 km/h 10.3 km/h 83 % 0 mm
12:27 -8.3 °C -9.9 °C 34750.5 hPa SW 5.1 km/h 10.3 km/h 83 % 0 mm
12:32 -8.2 °C -9.9 °C 34750.5 hPa SSW 2.6 km/h 10.3 km/h 82 % 0 mm
12:42 -7.9 °C -9.7 °C 34750.5 hPa South 5.1 km/h 10.3 km/h 81 % 0 mm
12:47 -7.7 °C -9.7 °C 34750.5 hPa SSW 7.7 km/h 10.3 km/h 79 % 0 mm
12:52 -7.6 °C -9.7 °C 34740.4 hPa SSW 5.1 km/h 10.3 km/h 78 % 0 mm
13:02 -7.3 °C -9.6 °C 34740.4 hPa SW 5.1 km/h 10.3 km/h 77 % 0 mm
13:12 -7.1 °C -9.3 °C 34740.4 hPa SSW 2.6 km/h 10.3 km/h 77 % 0 mm
13:17 -6.9 °C -9.3 °C 34740.4 hPa SSE 5.1 km/h 10.3 km/h 76 % 0 mm
13:22 -6.8 °C -9.4 °C 34740.4 hPa SSW 12.9 km/h 12.9 km/h 75 % 0 mm
13:32 -6.8 °C -9.4 °C 34740.4 hPa SSW 7.7 km/h 18.2 km/h 75 % 0 mm
13:42 -6.8 °C -9.3 °C 34726.8 hPa Calm   18.2 km/h 75 % 0 mm
13:47 -6.5 °C -9.4 °C 34726.8 hPa SSW 7.7 km/h 15.6 km/h 72 % 0 mm
13:52 -6.6 °C -9.3 °C 34726.8 hPa SSE 5.1 km/h 15.6 km/h 73 % 0 mm
14:02 -6.4 °C -9.4 °C 34716.7 hPa SW 5.1 km/h 15.6 km/h 71 % 0 mm
14:07 -6.3 °C -9.3 °C 34726.8 hPa SSW 5.1 km/h 15.6 km/h 71 % 0 mm
14:12 -6.3 °C -9.2 °C 34716.7 hPa SSW 10.3 km/h 15.6 km/h 72 % 0 mm
14:22 -6.2 °C -9.1 °C 34716.7 hPa SW 7.7 km/h 18.2 km/h 72 % 0 mm
14:32 -6 °C -8.9 °C 34716.7 hPa WSW 2.6 km/h 18.2 km/h 72 % 0 mm
14:42 -5.8 °C -9.1 °C 34716.7 hPa SW 12.9 km/h 15.6 km/h 69 % 0 mm
14:47 -5.8 °C -8.8 °C 34716.7 hPa SSW 5.1 km/h 15.6 km/h 71 % 0 mm
14:52 -5.7 °C -9.1 °C 34716.7 hPa SW 15.6 km/h 15.6 km/h 68 % 0 mm
14:57 -5.5 °C -9.1 °C 34703.1 hPa SW 7.7 km/h 18.2 km/h 67 % 0 mm
15:02 -5.5 °C -8.9 °C 34703.1 hPa SSW 7.7 km/h 18.2 km/h 68 % 0 mm
15:07 -5.3 °C -9.2 °C 34703.1 hPa SSW 10.3 km/h 18.2 km/h 65 % 0 mm
15:12 -5.4 °C -9.2 °C 34716.7 hPa West 7.7 km/h 18.2 km/h 65 % 0 mm
15:17 -5.3 °C -9.3 °C 34703.1 hPa SSW 7.7 km/h 15.6 km/h 64 % 0 mm
15:22 -5.2 °C -9.2 °C 34703.1 hPa SW 10.3 km/h 15.6 km/h 64 % 0 mm
15:27 -5.2 °C -9.3 °C 34703.1 hPa West 7.7 km/h 12.9 km/h 63 % 0 mm
15:32 -5.2 °C -9.4 °C 34703.1 hPa SSW 2.6 km/h 12.9 km/h 62 % 0 mm
15:37 -5.1 °C -9.4 °C 34703.1 hPa WSW 2.6 km/h 12.9 km/h 62 % 0 mm
15:42 -5.1 °C -9.3 °C 34703.1 hPa West 7.7 km/h 12.9 km/h 62 % 0 mm
15:47 -4.9 °C -9.3 °C 34703.1 hPa SW 7.7 km/h 12.9 km/h 61 % 0 mm
15:52 -4.9 °C -9.5 °C 34703.1 hPa WSW 5.1 km/h 12.9 km/h 60 % 0 mm
16:02 -4.9 °C -9.3 °C 34703.1 hPa WSW 7.7 km/h 12.9 km/h 61 % 0 mm
16:07 -4.8 °C -9.2 °C 34703.1 hPa WSW 5.1 km/h 10.3 km/h 61 % 0 mm
16:12 -4.7 °C -9.2 °C 34703.1 hPa SSE 5.1 km/h 10.3 km/h 60 % 0 mm
16:17 -4.6 °C -9 °C 34703.1 hPa West 2.6 km/h 7.7 km/h 61 % 0 mm
16:22 -4.6 °C -9.3 °C 34703.1 hPa SW 5.1 km/h 7.7 km/h 59 % 0 mm
16:32 -4.5 °C -9.5 °C 34703.1 hPa WSW 2.6 km/h 7.7 km/h 57 % 0 mm
16:42 -4.6 °C -9.6 °C 34703.1 hPa WSW 2.6 km/h 7.7 km/h 57 % 0 mm
16:47 -4.5 °C -9.5 °C 34703.1 hPa SSW 5.1 km/h 10.3 km/h 57 % 0 mm
16:52 -4.4 °C -9.6 °C 34703.1 hPa WSW 5.1 km/h 10.3 km/h 56 % 0 mm
16:57 -4.4 °C -9.4 °C 34703.1 hPa WSW 10.3 km/h 10.3 km/h 57 % 0 mm
17:02 -4.6 °C -9.4 °C 34703.1 hPa SW 2.6 km/h 7.7 km/h 58 % 0 mm
17:12 -4.6 °C -9.5 °C 34703.1 hPa SW 5.1 km/h 15.6 km/h 58 % 0 mm
17:17 -4.7 °C -9.4 °C 34703.1 hPa SSW 7.7 km/h 15.6 km/h 59 % 0 mm
17:27 -4.9 °C -9.3 °C 34703.1 hPa SSW 7.7 km/h 18.2 km/h 61 % 0 mm
17:32 -4.9 °C -9.3 °C 34703.1 hPa SW 7.7 km/h 18.2 km/h 61 % 0 mm
17:37 -4.9 °C -9.1 °C 34703.1 hPa SW 7.7 km/h 18.2 km/h 63 % 0 mm
17:42 -5 °C -9.4 °C 34703.1 hPa SSW 7.7 km/h 18.2 km/h 61 % 0 mm
17:47 -5.1 °C -9.4 °C 34703.1 hPa SW 5.1 km/h 12.9 km/h 62 % 0 mm
17:52 -5.1 °C -9.4 °C 34703.1 hPa SW 5.1 km/h 12.9 km/h 62 % 0 mm
18:02 -5.2 °C -9.3 °C 34703.1 hPa SSW 2.6 km/h 12.9 km/h 63 % 0 mm
18:12 -5.3 °C -9.4 °C 34703.1 hPa SSW 5.1 km/h 10.3 km/h 63 % 0 mm
18:17 -5.4 °C -9.4 °C 34703.1 hPa SW 5.1 km/h 10.3 km/h 64 % 0 mm
18:22 -5.6 °C -9.5 °C 34703.1 hPa WSW 2.6 km/h 10.3 km/h 64 % 0 mm
18:27 -5.7 °C -9.6 °C 34703.1 hPa Calm   10.3 km/h 65 % 0 mm
18:32 -5.9 °C -9.5 °C 34703.1 hPa Calm   7.7 km/h 67 % 0 mm
18:37 -6.2 °C -9.3 °C 34703.1 hPa Calm   7.7 km/h 70 % 0 mm
18:47 -6.7 °C -9.4 °C 34703.1 hPa WNW 2.6 km/h 5.1 km/h 73 % 0 mm
18:57 -7.2 °C -9.4 °C 34703.1 hPa Calm   5.1 km/h 77 % 0 mm
19:02 -7.3 °C -9.4 °C 34703.1 hPa WNW 2.6 km/h 5.1 km/h 78 % 0 mm
19:12 -7.7 °C -9.6 °C 34716.7 hPa Calm   2.6 km/h 80 % 0 mm
19:17 -7.7 °C -9.6 °C 34716.7 hPa WNW 2.6 km/h 2.6 km/h 81 % 0 mm
19:22 -7.8 °C -9.7 °C 34716.7 hPa Calm   2.6 km/h 80 % 0 mm
19:27 -7.9 °C -9.7 °C 34703.1 hPa WNW 2.6 km/h 2.6 km/h 81 % 0 mm
19:32 -8 °C -9.7 °C 34716.7 hPa WNW 2.6 km/h 2.6 km/h 82 % 0 mm
19:37 -8.1 °C -9.7 °C 34716.7 hPa Calm   2.6 km/h 83 % 0 mm
19:42 -8.2 °C -9.7 °C 34716.7 hPa Calm   2.6 km/h 84 % 0 mm
19:52 -8.4 °C -9.9 °C 34716.7 hPa Calm   2.6 km/h 84 % 0 mm
20:02 -8.5 °C -9.9 °C 34726.8 hPa Calm   2.6 km/h 85 % 0 mm
20:12 -8.7 °C -10 °C 34726.8 hPa Calm   2.6 km/h 86 % 0 mm
20:17 -8.8 °C -10.1 °C 34726.8 hPa Calm   2.6 km/h 87 % 0 mm
20:22 -8.9 °C -10.2 °C 34726.8 hPa Calm   2.6 km/h 87 % 0 mm
20:27 -9 °C -10.1 °C 34726.8 hPa WNW 2.6 km/h 2.6 km/h 88 % 0 mm
20:32 -9 °C -10.1 °C 34726.8 hPa Calm   2.6 km/h 88 % 0 mm
20:37 -9 °C -10.1 °C 34726.8 hPa Calm   2.6 km/h 88 % 0 mm
20:42 -8.8 °C -10.1 °C 34726.8 hPa Calm   2.6 km/h 87 % 0 mm
20:47 -9 °C -10.2 °C 34740.4 hPa WNW 2.6 km/h 2.6 km/h 87 % 0 mm
20:52 -9.1 °C -10.2 °C 34740.4 hPa WNW 2.6 km/h 2.6 km/h 88 % 0 mm
20:57 -9.1 °C -10.2 °C 34726.8 hPa North 2.6 km/h 2.6 km/h 88 % 0 mm
21:02 -9.1 °C -10.1 °C 34726.8 hPa Calm   2.6 km/h 89 % 0 mm
21:07 -9.2 °C -10.2 °C 34726.8 hPa Calm   2.6 km/h 89 % 0 mm
21:12 -9.3 °C -10.2 °C 34740.4 hPa Calm   2.6 km/h 90 % 0 mm
21:17 -9.3 °C -10.3 °C 34740.4 hPa Calm   2.6 km/h 89 % 0 mm
21:22 -9.4 °C -10.3 °C 34726.8 hPa Calm   2.6 km/h 90 % 0 mm
21:42 -9.5 °C -10.4 °C 34726.8 hPa Calm     90 % 0 mm
21:47 -9.5 °C -10.4 °C 34726.8 hPa Calm   2.6 km/h 90 % 0 mm
21:52 -9.5 °C -10.3 °C 34740.4 hPa Calm   2.6 km/h 91 % 0 mm
21:57 -9.6 °C -10.4 °C 34740.4 hPa North 2.6 km/h 2.6 km/h 90 % 0 mm
22:07 -9.6 °C -10.4 °C 34740.4 hPa Calm   2.6 km/h 91 % 0 mm
22:17 -9.6 °C -10.4 °C 34740.4 hPa Calm     91 % 0 mm
22:22 -9.6 °C -10.4 °C 34740.4 hPa Calm     91 % 0 mm
22:32 -9.6 °C -10.4 °C 34740.4 hPa North 2.6 km/h   91 % 0 mm
22:42 -9.6 °C -10.5 °C 34750.5 hPa North 2.6 km/h 7.7 km/h 90 % 0 mm
22:52 -9.6 °C -10.4 °C 34750.5 hPa North 5.1 km/h 7.7 km/h 91 % 0 mm
23:02 -9.6 °C -10.6 °C 34750.5 hPa Calm   7.7 km/h 89 % 0 mm
23:12 -9.9 °C -10.7 °C 34750.5 hPa Calm   7.7 km/h 91 % 0 mm
23:17 -9.9 °C -10.6 °C 34750.5 hPa WNW 2.6 km/h 2.6 km/h 92 % 0 mm
23:22 -9.8 °C -10.6 °C 34750.5 hPa Calm   2.6 km/h 91 % 0 mm
23:27 -9.9 °C -10.6 °C 34750.5 hPa Calm   2.6 km/h 92 % 0 mm
23:32 -9.9 °C -10.7 °C 34750.5 hPa Calm   2.6 km/h 91 % 0 mm
23:42 -9.9 °C -10.7 °C 34760.7 hPa Calm     92 % 0 mm
23:47 -9.9 °C -10.5 °C 34760.7 hPa Calm     93 % 0 mm
23:52 -9.8 °C -10.5 °C 34760.7 hPa North 5.1 km/h   92 % 0 mm
23:57 -9.8 °C -10.6 °C 34760.7 hPa NNW 5.1 km/h 10.3 km/h 91 % 0 mm
Meteo18
Compliments of Weather Underground - 4 mb

Script developed by  Jim McMurry - jmcmurry@mwt.net Adapted for the template by  Wim van der Kuil - Leuven-Template.eu

You find our weather info also at:

European Weather Network

Weather Underground

Equipment we use:

Weather-station
Davis Vue

Weather-program
Meteobridge

Weather-server
Raspberry PI 2 B+

Provider
1 and 1

Davis Vue

Meteobridge

Raspberry PI 2 B+

1 and 1